Time;durP1;ratioP1;P1;durP2;ratioP2;P2;SDS_P1;SDS_P2;PMS_P1;PMS_P2;Temp;Humidity;BMP_temperature;BMP_pressure;BME280_temperature;BME280_humidity;BME280_pressure;Samples;Min_cycle;Max_cycle;Signal;HPM_P1;HPM_P2
2023/06/07 00:02:26;;;;;;;8.15;3.90;;;;;;;;;;4991695;28;20078;-79
2023/06/07 00:04:54;;;;;;;7.78;3.92;;;;;;;;;;4989817;28;20083;-80
2023/06/07 00:07:20;;;;;;;7.30;3.80;;;;;;;;;;4991718;28;20097;-79
2023/06/07 00:09:46;;;;;;;6.20;4.00;;;;;;;;;;4995273;28;20010;-80
2023/06/07 00:12:14;;;;;;;5.35;3.53;;;;;;;;;;4994873;28;20034;-79
2023/06/07 00:14:40;;;;;;;5.43;3.63;;;;;;;;;;4992519;28;20011;-79
2023/06/07 00:17:08;;;;;;;8.45;3.95;;;;;;;;;;4995553;28;20023;-78
2023/06/07 00:19:34;;;;;;;11.18;3.70;;;;;;;;;;4987986;28;20019;-79
2023/06/07 00:22:02;;;;;;;10.43;4.05;;;;;;;;;;4997034;28;20107;-76
2023/06/07 00:24:30;;;;;;;7.00;3.78;;;;;;;;;;4996527;28;20015;-80
2023/06/07 00:26:58;;;;;;;6.57;3.90;;;;;;;;;;4995901;28;20035;-78
2023/06/07 00:29:26;;;;;;;9.38;4.45;;;;;;;;;;4994437;28;20014;-79
2023/06/07 00:31:53;;;;;;;7.10;3.63;;;;;;;;;;4990425;28;20035;-79
2023/06/07 00:34:19;;;;;;;7.45;3.83;;;;;;;;;;4992961;28;20015;-78
2023/06/07 00:36:46;;;;;;;7.45;4.30;;;;;;;;;;4992439;28;20026;-79
2023/06/07 00:39:12;;;;;;;4.47;3.47;;;;;;;;;;4992815;28;20095;-79
2023/06/07 00:41:38;;;;;;;6.18;3.92;;;;;;;;;;4993397;28;20023;-78
2023/06/07 00:44:04;;;;;;;6.65;4.32;;;;;;;;;;4995966;28;20023;-78
2023/06/07 00:46:31;;;;;;;6.82;3.83;;;;;;;;;;4994567;28;20125;-79
2023/06/07 00:48:57;;;;;;;7.43;4.10;;;;;;;;;;4999690;28;20051;-79
2023/06/07 00:51:24;;;;;;;8.15;4.45;;;;;;;;;;4990719;28;20099;-80
2023/06/07 00:53:50;;;;;;;9.48;4.25;;;;;;;;;;4992687;28;20025;-79
2023/06/07 00:56:17;;;;;;;8.50;3.90;;;;;;;;;;4994103;28;20027;-79
2023/06/07 00:58:43;;;;;;;9.00;4.10;;;;;;;;;;4993205;28;20027;-80
2023/06/07 01:01:10;;;;;;;6.65;4.10;;;;;;;;;;4993283;28;20039;-79
2023/06/07 01:03:37;;;;;;;4.47;3.58;;;;;;;;;;4992631;28;20058;-79
2023/06/07 01:06:04;;;;;;;12.38;4.97;;;;;;;;;;4994113;28;20046;-79
2023/06/07 01:08:30;;;;;;;6.70;4.32;;;;;;;;;;4996661;28;20110;-79
2023/06/07 01:10:58;;;;;;;6.25;4.63;;;;;;;;;;4992491;28;20360;-79
2023/06/07 01:13:24;;;;;;;6.28;4.40;;;;;;;;;;4985095;28;20035;-80
2023/06/07 01:15:51;;;;;;;6.88;4.63;;;;;;;;;;4994659;28;20027;-79
2023/06/07 01:18:18;;;;;;;6.28;4.45;;;;;;;;;;4990692;28;20042;-79
2023/06/07 01:20:46;;;;;;;10.70;5.10;;;;;;;;;;4992320;28;20035;-79
2023/06/07 01:23:14;;;;;;;7.47;4.60;;;;;;;;;;4988806;28;20127;-78
2023/06/07 01:25:40;;;;;;;9.82;4.53;;;;;;;;;;4986448;28;20037;-79
2023/06/07 01:28:06;;;;;;;10.77;5.75;;;;;;;;;;4985356;28;20034;-79
2023/06/07 01:30:32;;;;;;;6.85;4.40;;;;;;;;;;4990499;28;20031;-80
2023/06/07 01:32:59;;;;;;;12.90;5.38;;;;;;;;;;4988085;28;20023;-78
2023/06/07 01:35:26;;;;;;;8.77;4.90;;;;;;;;;;4990481;28;20028;-79
2023/06/07 01:37:52;;;;;;;10.82;5.05;;;;;;;;;;4990795;28;20031;-80
2023/06/07 01:40:20;;;;;;;15.43;5.40;;;;;;;;;;4986542;28;20035;-80
2023/06/07 01:42:46;;;;;;;9.07;5.47;;;;;;;;;;4988297;28;20058;-79
2023/06/07 01:45:13;;;;;;;8.88;5.47;;;;;;;;;;4989635;28;20034;-78
2023/06/07 01:47:39;;;;;;;11.32;4.68;;;;;;;;;;4992346;28;20030;-79
2023/06/07 01:50:06;;;;;;;8.32;5.03;;;;;;;;;;4990721;28;20090;-79
2023/06/07 01:52:32;;;;;;;6.70;4.68;;;;;;;;;;4987918;28;20066;-80
2023/06/07 01:54:58;;;;;;;7.28;4.88;;;;;;;;;;4986546;28;20034;-79
2023/06/07 01:57:24;;;;;;;8.73;4.93;;;;;;;;;;4989580;28;20066;-78
2023/06/07 01:59:53;;;;;;;8.63;4.72;;;;;;;;;;4992680;28;20030;-79
2023/06/07 02:02:38;;;;;;;10.32;4.80;;;;;;;;;;4996105;28;20049;-79
2023/06/07 02:05:07;;;;;;;8.50;5.07;;;;;;;;;;4996618;28;20066;-79
2023/06/07 02:07:36;;;;;;;8.07;5.10;;;;;;;;;;4991665;28;20026;-80
2023/06/07 02:10:03;;;;;;;10.55;5.25;;;;;;;;;;4990117;28;20027;-80
2023/06/07 02:12:30;;;;;;;8.50;5.60;;;;;;;;;;4985681;28;20049;-80
2023/06/07 02:14:58;;;;;;;7.35;4.88;;;;;;;;;;4988960;28;20036;-80
2023/06/07 02:17:24;;;;;;;8.82;4.88;;;;;;;;;;4988372;28;20023;-80
2023/06/07 02:19:50;;;;;;;8.55;5.60;;;;;;;;;;4990180;28;20068;-79
2023/06/07 02:22:16;;;;;;;12.43;5.70;;;;;;;;;;4991060;28;20062;-80
2023/06/07 02:24:42;;;;;;;8.65;4.85;;;;;;;;;;4990841;28;20030;-79
2023/06/07 02:27:08;;;;;;;9.18;4.85;;;;;;;;;;4988884;28;20035;-79
2023/06/07 02:29:35;;;;;;;11.65;5.15;;;;;;;;;;4985899;28;20023;-79
2023/06/07 02:32:01;;;;;;;8.90;5.30;;;;;;;;;;4988724;28;20120;-79
2023/06/07 02:34:29;;;;;;;15.38;6.30;;;;;;;;;;4989721;28;20022;-78
2023/06/07 02:36:55;;;;;;;8.98;5.45;;;;;;;;;;4992567;28;20093;-79
2023/06/07 02:39:21;;;;;;;11.18;5.07;;;;;;;;;;4989159;28;20023;-78
2023/06/07 02:41:47;;;;;;;12.75;5.72;;;;;;;;;;4985603;28;20055;-78
2023/06/07 02:44:13;;;;;;;9.02;5.25;;;;;;;;;;4991404;28;20098;-78
2023/06/07 02:46:39;;;;;;;10.18;6.07;;;;;;;;;;4988568;28;20066;-79
2023/06/07 02:49:05;;;;;;;7.00;4.57;;;;;;;;;;4990936;28;20023;-79
2023/06/07 02:51:31;;;;;;;7.97;5.13;;;;;;;;;;4985935;28;20065;-79
2023/06/07 02:53:59;;;;;;;8.20;4.78;;;;;;;;;;4989936;28;20030;-78
2023/06/07 02:56:26;;;;;;;13.18;5.47;;;;;;;;;;4989904;28;20110;-78
2023/06/07 02:58:52;;;;;;;10.02;5.70;;;;;;;;;;4987171;28;20026;-80
2023/06/07 03:01:19;;;;;;;8.70;5.72;;;;;;;;;;4984890;28;20081;-79
2023/06/07 03:03:45;;;;;;;13.77;5.53;;;;;;;;;;4987078;28;20027;-79
2023/06/07 03:06:11;;;;;;;11.00;5.75;;;;;;;;;;4984894;28;20033;-79
2023/06/07 03:08:37;;;;;;;8.43;5.63;;;;;;;;;;4986061;28;20026;-79
2023/06/07 03:11:03;;;;;;;12.75;6.15;;;;;;;;;;4986480;28;20506;-78
2023/06/07 03:13:29;;;;;;;13.07;5.88;;;;;;;;;;4985727;28;20058;-80
2023/06/07 03:15:55;;;;;;;11.05;6.10;;;;;;;;;;4991434;28;20869;-80
2023/06/07 03:18:23;;;;;;;12.18;6.38;;;;;;;;;;4990182;28;20019;-80
2023/06/07 03:20:49;;;;;;;12.60;5.90;;;;;;;;;;4988201;28;20119;-79
2023/06/07 03:23:15;;;;;;;10.88;6.35;;;;;;;;;;4992811;28;20023;-79
2023/06/07 03:25:41;;;;;;;12.63;6.43;;;;;;;;;;4985905;28;20034;-79
2023/06/07 03:28:07;;;;;;;11.77;7.00;;;;;;;;;;4991021;28;20034;-80
2023/06/07 03:30:33;;;;;;;9.88;6.68;;;;;;;;;;4990172;28;20031;-79
2023/06/07 03:32:59;;;;;;;11.18;6.05;;;;;;;;;;4986423;28;20030;-79
2023/06/07 03:35:25;;;;;;;10.02;6.22;;;;;;;;;;4990668;28;20031;-79
2023/06/07 03:37:51;;;;;;;16.05;6.72;;;;;;;;;;4990980;28;20030;-78
2023/06/07 03:40:17;;;;;;;11.00;6.40;;;;;;;;;;4987639;28;20059;-79
2023/06/07 03:42:43;;;;;;;10.80;6.47;;;;;;;;;;4991217;28;20110;-79
2023/06/07 03:45:10;;;;;;;20.45;7.03;;;;;;;;;;4991409;28;20030;-79
2023/06/07 03:47:37;;;;;;;11.05;6.80;;;;;;;;;;4989527;28;20046;-79
2023/06/07 03:50:03;;;;;;;12.40;6.30;;;;;;;;;;4987758;28;20040;-80
2023/06/07 03:52:29;;;;;;;14.95;7.80;;;;;;;;;;4991992;28;20103;-80
2023/06/07 03:54:55;;;;;;;14.65;6.88;;;;;;;;;;4987148;28;20031;-79
2023/06/07 03:57:21;;;;;;;11.43;6.45;;;;;;;;;;4985113;28;20027;-79
2023/06/07 03:59:47;;;;;;;13.57;7.25;;;;;;;;;;4987597;28;20042;-79
2023/06/07 04:02:13;;;;;;;12.57;6.72;;;;;;;;;;4989293;28;20046;-79
2023/06/07 04:04:39;;;;;;;11.23;6.82;;;;;;;;;;4987593;28;20030;-80
2023/06/07 04:07:07;;;;;;;9.63;6.45;;;;;;;;;;4984692;28;20031;-80
2023/06/07 04:09:33;;;;;;;14.15;7.63;;;;;;;;;;4988528;28;20034;-79
2023/06/07 04:12:01;;;;;;;14.93;7.32;;;;;;;;;;4986847;28;20041;-79
2023/06/07 04:14:27;;;;;;;15.38;8.05;;;;;;;;;;4990831;28;20023;-81
2023/06/07 04:16:53;;;;;;;11.05;6.80;;;;;;;;;;4983737;28;20038;-80
2023/06/07 04:19:19;;;;;;;14.88;6.97;;;;;;;;;;4984920;28;20039;-80
2023/06/07 04:21:45;;;;;;;16.33;7.40;;;;;;;;;;4989047;28;20074;-79
2023/06/07 04:24:11;;;;;;;10.48;6.78;;;;;;;;;;4989506;28;20027;-80
2023/06/07 04:26:37;;;;;;;12.75;6.53;;;;;;;;;;4990647;28;20075;-80
2023/06/07 04:29:04;;;;;;;13.60;6.97;;;;;;;;;;4985488;28;20083;-79
2023/06/07 04:31:33;;;;;;;14.25;6.53;;;;;;;;;;4988289;28;20030;-79
2023/06/07 04:34:01;;;;;;;11.77;7.40;;;;;;;;;;4988784;28;20031;-79
2023/06/07 04:36:30;;;;;;;16.75;6.82;;;;;;;;;;4989194;28;20035;-80
2023/06/07 04:38:57;;;;;;;24.20;6.78;;;;;;;;;;4994543;28;20030;-79
2023/06/07 04:41:33;;;;;;;14.00;7.38;;;;;;;;;;4989064;28;20038;-80
2023/06/07 04:44:03;;;;;;;13.88;7.18;;;;;;;;;;4989491;28;20090;-79
2023/06/07 04:46:30;;;;;;;11.57;6.70;;;;;;;;;;4989902;28;20027;-79
2023/06/07 04:48:57;;;;;;;14.30;6.72;;;;;;;;;;4991506;28;20117;-79
2023/06/07 04:51:25;;;;;;;15.68;7.05;;;;;;;;;;4988287;28;20093;-78
2023/06/07 04:53:57;;;;;;;15.80;6.93;;;;;;;;;;4989416;28;20027;-80
2023/06/07 04:56:24;;;;;;;12.88;6.55;;;;;;;;;;4988706;28;20050;-79
2023/06/07 04:58:52;;;;;;;14.63;6.40;;;;;;;;;;4985994;28;20106;-79
2023/06/07 05:01:18;;;;;;;10.77;6.22;;;;;;;;;;4987426;28;20043;-79
2023/06/07 05:03:44;;;;;;;20.13;7.45;;;;;;;;;;4988724;28;20033;-80
2023/06/07 05:06:11;;;;;;;12.70;6.70;;;;;;;;;;4989438;28;20038;-79
2023/06/07 05:08:37;;;;;;;12.68;7.22;;;;;;;;;;4982933;28;20045;-80
2023/06/07 05:11:03;;;;;;;12.02;7.07;;;;;;;;;;4986842;28;20118;-80
2023/06/07 05:13:29;;;;;;;12.52;6.38;;;;;;;;;;4946277;28;1181786;-78
2023/06/07 05:15:55;;;;;;;12.93;6.22;;;;;;;;;;4990349;28;20030;-79
2023/06/07 05:18:21;;;;;;;15.00;7.55;;;;;;;;;;4988882;28;21790;-79
2023/06/07 05:20:47;;;;;;;9.95;6.40;;;;;;;;;;4989544;28;20031;-80
2023/06/07 05:23:17;;;;;;;20.25;7.50;;;;;;;;;;4989139;28;20120;-80
2023/06/07 05:25:46;;;;;;;14.30;6.32;;;;;;;;;;4983226;28;20086;-80
2023/06/07 05:28:13;;;;;;;15.70;6.50;;;;;;;;;;4987262;28;20087;-80
2023/06/07 05:30:39;;;;;;;10.50;6.72;;;;;;;;;;4982882;28;20031;-81
2023/06/07 05:33:06;;;;;;;18.48;6.60;;;;;;;;;;4986581;28;20030;-79
2023/06/07 05:35:32;;;;;;;16.95;7.70;;;;;;;;;;4989253;28;20031;-82
2023/06/07 05:37:58;;;;;;;8.98;6.25;;;;;;;;;;4982710;28;20046;-82
2023/06/07 05:40:24;;;;;;;12.73;6.47;;;;;;;;;;4985338;28;20061;-82
2023/06/07 05:42:50;;;;;;;12.02;6.63;;;;;;;;;;4991713;28;20034;-81
2023/06/07 05:45:16;;;;;;;12.30;6.53;;;;;;;;;;4983919;28;20042;-83
2023/06/07 05:47:46;;;;;;;10.32;6.65;;;;;;;;;;4985651;28;20030;-82
2023/06/07 05:50:12;;;;;;;16.00;6.68;;;;;;;;;;4985564;28;20121;-82
2023/06/07 05:52:40;;;;;;;10.50;6.13;;;;;;;;;;4986298;28;20043;-79
2023/06/07 05:55:06;;;;;;;15.15;6.40;;;;;;;;;;4988338;28;20271;-81
2023/06/07 05:57:32;;;;;;;15.20;6.35;;;;;;;;;;4987015;28;20062;-81
2023/06/07 05:59:58;;;;;;;11.18;6.43;;;;;;;;;;4986614;28;20031;-83
2023/06/07 06:02:28;;;;;;;10.35;6.50;;;;;;;;;;4983262;28;20046;-83
2023/06/07 06:04:55;;;;;;;14.95;6.97;;;;;;;;;;4990237;28;20205;-80
2023/06/07 06:07:21;;;;;;;14.27;6.70;;;;;;;;;;4992679;28;20061;-81
2023/06/07 06:09:47;;;;;;;16.00;7.28;;;;;;;;;;4983968;28;20159;-80
2023/06/07 06:12:13;;;;;;;12.57;6.93;;;;;;;;;;4987134;28;20520;-81
2023/06/07 06:14:39;;;;;;;17.60;6.93;;;;;;;;;;4988137;28;20023;-81
2023/06/07 06:17:06;;;;;;;14.32;7.13;;;;;;;;;;4984744;28;20034;-80
2023/06/07 06:19:32;;;;;;;13.32;6.47;;;;;;;;;;4985118;28;20098;-80
2023/06/07 06:21:58;;;;;;;17.70;7.15;;;;;;;;;;4988779;28;20093;-81
2023/06/07 06:24:24;;;;;;;14.38;6.80;;;;;;;;;;4987101;28;20103;-80
2023/06/07 06:26:50;;;;;;;15.82;6.28;;;;;;;;;;4989207;28;20031;-83
2023/06/07 06:29:17;;;;;;;15.95;7.13;;;;;;;;;;4987829;28;20034;-81
2023/06/07 06:31:43;;;;;;;13.45;6.40;;;;;;;;;;4990540;28;20035;-80
2023/06/07 06:34:10;;;;;;;16.90;7.00;;;;;;;;;;4982694;28;20034;-82
2023/06/07 06:36:36;;;;;;;16.73;6.40;;;;;;;;;;4984658;28;20035;-81
2023/06/07 06:39:03;;;;;;;16.95;7.05;;;;;;;;;;4986421;28;20110;-82
2023/06/07 06:41:30;;;;;;;12.50;7.00;;;;;;;;;;4983616;28;20045;-80
2023/06/07 06:43:56;;;;;;;16.83;7.43;;;;;;;;;;4954622;28;20062;-80
2023/06/07 06:46:22;;;;;;;10.38;6.07;;;;;;;;;;4984831;28;20228;-81
2023/06/07 06:48:48;;;;;;;15.57;7.03;;;;;;;;;;4989129;28;20561;-82
2023/06/07 06:51:14;;;;;;;16.45;7.13;;;;;;;;;;4989970;28;20037;-81
2023/06/07 06:53:41;;;;;;;12.43;6.80;;;;;;;;;;4985312;28;20031;-80
2023/06/07 06:56:07;;;;;;;12.25;6.70;;;;;;;;;;4984938;28;20043;-80
2023/06/07 06:58:34;;;;;;;18.85;6.72;;;;;;;;;;4983901;28;20035;-80
2023/06/07 07:01:01;;;;;;;12.95;6.80;;;;;;;;;;4983794;28;20031;-80
2023/06/07 07:03:27;;;;;;;15.05;6.43;;;;;;;;;;4982814;28;20062;-81
2023/06/07 07:05:53;;;;;;;14.25;6.25;;;;;;;;;;4986639;28;20049;-80
2023/06/07 07:08:19;;;;;;;16.75;6.55;;;;;;;;;;4981833;28;20118;-80
2023/06/07 07:10:47;;;;;;;14.20;7.20;;;;;;;;;;4978492;28;20031;-80
2023/06/07 07:13:13;;;;;;;14.70;7.35;;;;;;;;;;4982574;28;20034;-80
2023/06/07 07:15:39;;;;;;;14.23;7.45;;;;;;;;;;4989227;28;20022;-80
2023/06/07 07:18:07;;;;;;;12.77;7.50;;;;;;;;;;4981054;28;20057;-81
2023/06/07 07:20:33;;;;;;;15.52;7.22;;;;;;;;;;4985321;28;20031;-81
2023/06/07 07:23:01;;;;;;;14.80;7.10;;;;;;;;;;4985811;28;20071;-82
2023/06/07 07:25:27;;;;;;;14.40;7.65;;;;;;;;;;4984477;28;20039;-79
2023/06/07 07:27:53;;;;;;;9.73;6.30;;;;;;;;;;4987507;28;20042;-81
2023/06/07 07:30:20;;;;;;;13.32;7.93;;;;;;;;;;4983452;28;20107;-80
2023/06/07 07:32:45;;;;;;;9.43;6.65;;;;;;;;;;4974009;28;20026;-81
2023/06/07 07:35:12;;;;;;;11.93;6.95;;;;;;;;;;4989173;28;20045;-80
2023/06/07 07:37:39;;;;;;;15.10;7.85;;;;;;;;;;4979765;28;20053;-81
2023/06/07 07:40:05;;;;;;;13.20;7.03;;;;;;;;;;4990486;28;20037;-80
2023/06/07 07:42:31;;;;;;;17.70;7.75;;;;;;;;;;4990104;28;20030;-80
2023/06/07 07:44:57;;;;;;;14.15;7.50;;;;;;;;;;4984091;28;20062;-79
2023/06/07 07:47:23;;;;;;;13.18;7.28;;;;;;;;;;4986575;28;20751;-82
2023/06/07 07:49:51;;;;;;;15.05;7.95;;;;;;;;;;4986484;28;20030;-80
2023/06/07 07:52:20;;;;;;;21.25;8.32;;;;;;;;;;4980665;28;20027;-82
2023/06/07 07:54:47;;;;;;;13.70;7.07;;;;;;;;;;4972064;28;20023;-84
2023/06/07 07:57:13;;;;;;;15.45;7.75;;;;;;;;;;4970616;28;20118;-83
2023/06/07 07:59:41;;;;;;;12.18;7.50;;;;;;;;;;4965011;28;20049;-84
2023/06/07 08:02:07;;;;;;;15.90;7.13;;;;;;;;;;4969599;28;20034;-84
2023/06/07 08:04:33;;;;;;;13.93;7.75;;;;;;;;;;4967449;28;20039;-84
2023/06/07 08:07:00;;;;;;;19.42;8.07;;;;;;;;;;4971664;28;20035;-82
2023/06/07 08:09:26;;;;;;;13.50;8.18;;;;;;;;;;4964469;28;20039;-84
2023/06/07 08:11:52;;;;;;;11.52;7.65;;;;;;;;;;4964213;28;20030;-84
2023/06/07 08:14:18;;;;;;;20.10;8.13;;;;;;;;;;4965947;28;20047;-84
2023/06/07 08:16:48;;;;;;;11.85;7.97;;;;;;;;;;4967503;28;20114;-83
2023/06/07 08:19:14;;;;;;;16.48;8.15;;;;;;;;;;4967742;28;20113;-84
2023/06/07 08:21:43;;;;;;;15.00;8.10;;;;;;;;;;4965758;28;20078;-84
2023/06/07 08:24:11;;;;;;;15.25;8.00;;;;;;;;;;4964868;28;20027;-84
2023/06/07 08:26:37;;;;;;;17.00;8.45;;;;;;;;;;4968731;28;20043;-84
2023/06/07 08:29:05;;;;;;;18.35;9.07;;;;;;;;;;4965447;28;20050;-84
2023/06/07 08:31:31;;;;;;;14.25;8.23;;;;;;;;;;4968671;28;20052;-83
2023/06/07 08:33:57;;;;;;;17.80;8.60;;;;;;;;;;4967422;28;20062;-84
2023/06/07 08:36:23;;;;;;;13.85;8.30;;;;;;;;;;4965680;28;20077;-85
2023/06/07 08:38:49;;;;;;;11.57;7.78;;;;;;;;;;4967555;28;20041;-84
2023/06/07 08:41:15;;;;;;;18.50;8.73;;;;;;;;;;4967046;28;20019;-82
2023/06/07 08:43:49;;;;;;;13.45;7.07;;;;;;;;;;4966464;28;20109;-85
2023/06/07 08:46:17;;;;;;;13.82;7.88;;;;;;;;;;4965034;28;20140;-85
2023/06/07 08:48:43;;;;;;;28.00;7.68;;;;;;;;;;4969085;28;20040;-84
2023/06/07 08:51:10;;;;;;;10.82;8.05;;;;;;;;;;4974386;28;20022;-84
2023/06/07 08:53:54;;;;;;;21.25;8.40;;;;;;;;;;4971268;28;20041;-83
2023/06/07 08:56:21;;;;;;;15.60;7.78;;;;;;;;;;4966798;28;20030;-83
2023/06/07 08:58:48;;;;;;;13.18;7.65;;;;;;;;;;4966035;28;20042;-84
2023/06/07 09:01:15;;;;;;;15.88;8.65;;;;;;;;;;4962344;28;20061;-82
2023/06/07 09:03:41;;;;;;;15.15;8.02;;;;;;;;;;4970560;28;20031;-83
2023/06/07 09:06:07;;;;;;;13.52;7.95;;;;;;;;;;4966957;28;20093;-84
2023/06/07 09:08:33;;;;;;;12.80;7.45;;;;;;;;;;4972006;28;20035;-84
2023/06/07 09:10:59;;;;;;;17.30;8.40;;;;;;;;;;4975398;28;20023;-83
2023/06/07 09:13:25;;;;;;;14.63;8.50;;;;;;;;;;4966799;28;20027;-84
2023/06/07 09:15:57;;;;;;;14.13;8.00;;;;;;;;;;4971727;28;20075;-83
2023/06/07 09:18:23;;;;;;;12.75;7.28;;;;;;;;;;4964973;28;20027;-85
2023/06/07 09:20:49;;;;;;;14.70;8.73;;;;;;;;;;4970225;28;20061;-85
2023/06/07 09:23:16;;;;;;;15.00;9.45;;;;;;;;;;4972027;28;20038;-85
2023/06/07 09:25:45;;;;;;;13.57;9.57;;;;;;;;;;4964603;28;20039;-84
2023/06/07 09:28:15;;;;;;;16.67;10.68;;;;;;;;;;4966515;28;20443;-83
2023/06/07 09:30:57;;;;;;;17.45;9.90;;;;;;;;;;4974221;28;20039;-85
2023/06/07 09:33:28;;;;;;;18.25;9.82;;;;;;;;;;4968334;28;20026;-85
2023/06/07 09:36:04;;;;;;;18.40;9.77;;;;;;;;;;4965108;28;20026;-83
2023/06/07 09:38:30;;;;;;;16.52;10.35;;;;;;;;;;4971002;28;20109;-83
2023/06/07 09:40:59;;;;;;;17.05;10.50;;;;;;;;;;4970831;28;20035;-84
2023/06/07 09:43:25;;;;;;;24.55;12.25;;;;;;;;;;4972723;28;20058;-85
2023/06/07 09:45:58;;;;;;;20.10;10.38;;;;;;;;;;4968643;28;20121;-82
2023/06/07 09:48:24;;;;;;;16.90;10.80;;;;;;;;;;4973892;28;20460;-82
2023/06/07 09:50:56;;;;;;;15.15;10.45;;;;;;;;;;4973085;28;20033;-83
2023/06/07 09:53:22;;;;;;;19.70;11.82;;;;;;;;;;4969766;28;20034;-83
2023/06/07 09:55:48;;;;;;;16.35;10.40;;;;;;;;;;4970744;28;20026;-82
2023/06/07 09:58:19;;;;;;;17.77;10.20;;;;;;;;;;4966607;28;20043;-82
2023/06/07 10:00:45;;;;;;;18.88;10.60;;;;;;;;;;4968280;28;20051;-84
2023/06/07 10:03:12;;;;;;;14.50;9.07;;;;;;;;;;4968425;28;20040;-84
2023/06/07 10:05:39;;;;;;;13.48;8.48;;;;;;;;;;4966305;28;20031;-85
2023/06/07 10:08:05;;;;;;;15.70;9.52;;;;;;;;;;4971672;28;20436;-84
2023/06/07 10:10:35;;;;;;;13.80;8.57;;;;;;;;;;4963408;28;20023;-84
2023/06/07 10:13:07;;;;;;;15.38;8.77;;;;;;;;;;4974790;28;20034;-84
2023/06/07 10:15:35;;;;;;;14.50;7.30;;;;;;;;;;4967676;28;20019;-83
2023/06/07 10:18:01;;;;;;;15.50;8.40;;;;;;;;;;4971674;28;20103;-84
2023/06/07 10:20:31;;;;;;;15.48;8.30;;;;;;;;;;4962618;28;20341;-83
2023/06/07 10:23:04;;;;;;;12.40;8.35;;;;;;;;;;4970427;28;20038;-85
2023/06/07 10:26:02;;;;;;;14.05;8.95;;;;;;;;;;4968782;28;20066;-84
2023/06/07 10:28:39;;;;;;;23.50;9.30;;;;;;;;;;4940238;28;20116;-83
2023/06/07 10:31:08;;;;;;;14.52;9.18;;;;;;;;;;4967656;28;20135;-84
2023/06/07 10:33:34;;;;;;;13.93;9.05;;;;;;;;;;4966302;28;20125;-83
2023/06/07 10:36:01;;;;;;;13.05;8.88;;;;;;;;;;4967400;28;20035;-83
2023/06/07 10:38:33;;;;;;;12.75;8.60;;;;;;;;;;4968940;28;20031;-82
2023/06/07 10:41:01;;;;;;;17.25;9.40;;;;;;;;;;4967814;28;20050;-82
2023/06/07 10:43:28;;;;;;;16.30;9.23;;;;;;;;;;4964453;28;20128;-83
2023/06/07 10:46:13;;;;;;;14.60;9.68;;;;;;;;;;4967363;28;20109;-82
2023/06/07 10:48:45;;;;;;;16.92;9.38;;;;;;;;;;4964777;28;20134;-83
2023/06/07 10:51:11;;;;;;;19.52;10.43;;;;;;;;;;4969472;28;20026;-82
2023/06/07 10:53:51;;;;;;;24.17;10.38;;;;;;;;;;4966581;28;20027;-83
2023/06/07 10:56:32;;;;;;;16.50;10.27;;;;;;;;;;4966451;28;20044;-83
2023/06/07 10:59:18;;;;;;;15.55;10.48;;;;;;;;;;4970209;28;20033;-84
2023/06/07 11:01:49;;;;;;;16.98;9.93;;;;;;;;;;4975509;28;20097;-84
2023/06/07 11:04:34;;;;;;;17.58;10.73;;;;;;;;;;4971610;28;20037;-84
2023/06/07 11:07:18;;;;;;;17.73;10.32;;;;;;;;;;4971929;28;20054;-84
2023/06/07 11:09:44;;;;;;;18.08;9.95;;;;;;;;;;4963335;28;20122;-84
2023/06/07 11:12:29;;;;;;;15.98;11.52;;;;;;;;;;4966886;28;20497;-84
2023/06/07 11:15:14;;;;;;;15.52;10.43;;;;;;;;;;4969540;28;20232;-84
2023/06/07 11:17:53;;;;;;;17.90;11.80;;;;;;;;;;4967598;28;20055;-83
2023/06/07 11:20:37;;;;;;;16.65;11.90;;;;;;;;;;4964118;28;20042;-85
2023/06/07 11:23:22;;;;;;;17.77;12.43;;;;;;;;;;4963851;28;20125;-84
2023/06/07 11:25:49;;;;;;;20.10;13.50;;;;;;;;;;4970731;28;20126;-85
2023/06/07 11:28:18;;;;;;;19.02;12.95;;;;;;;;;;4962542;28;20035;-84
2023/06/07 11:30:44;;;;;;;19.23;13.98;;;;;;;;;;4967260;28;20053;-82
2023/06/07 11:33:16;;;;;;;20.95;14.32;;;;;;;;;;4964498;28;20471;-81
2023/06/07 11:35:43;;;;;;;16.95;13.52;;;;;;;;;;4967779;28;21012;-84
2023/06/07 11:38:09;;;;;;;15.82;12.63;;;;;;;;;;4961357;28;20042;-85
2023/06/07 11:40:36;;;;;;;18.45;13.57;;;;;;;;;;4964775;28;20024;-84
2023/06/07 11:43:02;;;;;;;20.02;14.80;;;;;;;;;;4957003;28;20041;-84
2023/06/07 11:45:28;;;;;;;20.50;15.52;;;;;;;;;;4969714;28;20046;-84
2023/06/07 11:48:00;;;;;;;18.63;13.70;;;;;;;;;;4963139;28;20023;-85
2023/06/07 11:50:26;;;;;;;19.65;15.63;;;;;;;;;;4975449;28;20030;-83
2023/06/07 11:52:53;;;;;;;19.88;14.93;;;;;;;;;;4965378;28;20037;-83
2023/06/07 11:55:20;;;;;;;20.02;14.43;;;;;;;;;;4965866;28;20018;-84
2023/06/07 11:57:52;;;;;;;20.17;15.13;;;;;;;;;;4967079;28;20041;-83
2023/06/07 12:00:20;;;;;;;23.23;15.90;;;;;;;;;;4963618;28;20027;-84
2023/06/07 12:02:46;;;;;;;23.38;15.68;;;;;;;;;;4966921;28;20034;-84
2023/06/07 12:05:13;;;;;;;24.73;14.98;;;;;;;;;;4966138;28;20543;-82
2023/06/07 12:07:40;;;;;;;20.52;15.18;;;;;;;;;;4972854;28;20057;-84
2023/06/07 12:10:07;;;;;;;22.48;16.95;;;;;;;;;;4963367;28;20023;-85
2023/06/07 12:12:33;;;;;;;21.65;16.45;;;;;;;;;;4960780;28;20039;-82
2023/06/07 12:15:00;;;;;;;25.67;16.90;;;;;;;;;;4964464;28;20448;-83
2023/06/07 12:17:34;;;;;;;18.65;15.90;;;;;;;;;;4952119;28;20035;-84
2023/06/07 12:20:11;;;;;;;24.80;15.95;;;;;;;;;;4962838;28;20062;-85
2023/06/07 12:22:37;;;;;;;28.95;17.75;;;;;;;;;;4948963;28;20062;-83
2023/06/07 12:25:21;;;;;;;19.88;15.18;;;;;;;;;;4963945;28;20082;-84
2023/06/07 12:27:47;;;;;;;19.73;16.02;;;;;;;;;;4971741;28;20165;-84
2023/06/07 12:30:14;;;;;;;21.95;17.05;;;;;;;;;;4973277;28;20030;-83
2023/06/07 12:32:40;;;;;;;22.13;16.27;;;;;;;;;;4965283;28;20452;-85
2023/06/07 12:35:06;;;;;;;20.85;16.73;;;;;;;;;;4972313;28;20050;-83
2023/06/07 12:37:35;;;;;;;26.13;17.35;;;;;;;;;;4975022;28;20094;-84
2023/06/07 12:40:04;;;;;;;21.55;16.60;;;;;;;;;;4973136;28;20122;-85
2023/06/07 12:42:32;;;;;;;28.95;16.88;;;;;;;;;;4970149;28;20074;-83
2023/06/07 12:44:59;;;;;;;23.70;17.90;;;;;;;;;;4973196;28;20117;-84
2023/06/07 12:47:25;;;;;;;28.83;20.80;;;;;;;;;;4971273;28;20054;-85
2023/06/07 12:49:51;;;;;;;29.35;20.92;;;;;;;;;;4971975;28;20027;-85
2023/06/07 12:52:17;;;;;;;33.70;24.20;;;;;;;;;;4973828;28;20109;-85
2023/06/07 12:54:46;;;;;;;40.95;27.38;;;;;;;;;;4973482;28;20495;-84
2023/06/07 12:57:12;;;;;;;39.78;31.63;;;;;;;;;;4965190;28;20055;-84
2023/06/07 12:59:38;;;;;;;52.08;39.13;;;;;;;;;;4967944;28;20441;-84
2023/06/07 13:02:04;;;;;;;59.42;43.00;;;;;;;;;;4978049;28;20038;-82
2023/06/07 13:04:30;;;;;;;52.63;38.55;;;;;;;;;;4978184;28;20035;-81
2023/06/07 13:06:56;;;;;;;59.58;43.53;;;;;;;;;;4985878;28;20035;-81
2023/06/07 13:09:22;;;;;;;70.75;46.50;;;;;;;;;;4986032;28;20033;-81
2023/06/07 13:11:49;;;;;;;73.72;46.95;;;;;;;;;;4986178;28;20061;-80
2023/06/07 13:14:15;;;;;;;113.75;56.88;;;;;;;;;;4990314;28;20121;-81
2023/06/07 13:16:43;;;;;;;112.18;62.80;;;;;;;;;;4987019;28;20041;-80
2023/06/07 13:19:10;;;;;;;129.43;67.70;;;;;;;;;;4979233;28;20035;-80
2023/06/07 13:21:37;;;;;;;132.57;70.40;;;;;;;;;;4983604;28;20070;-80
2023/06/07 13:24:03;;;;;;;147.43;76.63;;;;;;;;;;4979066;28;20117;-79
2023/06/07 13:26:29;;;;;;;148.77;77.50;;;;;;;;;;4976654;28;20397;-80
2023/06/07 13:28:55;;;;;;;148.32;78.90;;;;;;;;;;4973441;28;20089;-80
2023/06/07 13:31:21;;;;;;;169.52;83.93;;;;;;;;;;4970158;28;20082;-80
2023/06/07 13:33:47;;;;;;;147.73;79.93;;;;;;;;;;4971407;28;20026;-80
2023/06/07 13:36:15;;;;;;;166.77;79.70;;;;;;;;;;4976850;28;20059;-80
2023/06/07 13:38:44;;;;;;;147.05;76.28;;;;;;;;;;4968415;28;20383;-80
2023/06/07 13:41:10;;;;;;;114.53;68.53;;;;;;;;;;4976537;28;20090;-80
2023/06/07 13:43:36;;;;;;;127.93;71.45;;;;;;;;;;4966231;28;20432;-80
2023/06/07 13:46:02;;;;;;;110.15;67.50;;;;;;;;;;4978280;28;20041;-80
2023/06/07 13:48:29;;;;;;;109.50;67.50;;;;;;;;;;4972637;28;20046;-81
2023/06/07 13:50:55;;;;;;;95.22;59.95;;;;;;;;;;4971005;28;20168;-79
2023/06/07 13:53:24;;;;;;;73.65;51.13;;;;;;;;;;4974782;28;20050;-81
2023/06/07 13:55:50;;;;;;;64.45;45.28;;;;;;;;;;4975496;28;20057;-83
2023/06/07 13:58:20;;;;;;;55.15;42.33;;;;;;;;;;4967813;28;20030;-82
2023/06/07 14:00:46;;;;;;;54.42;41.50;;;;;;;;;;4964487;28;20118;-82
2023/06/07 14:03:14;;;;;;;48.08;34.17;;;;;;;;;;4971304;28;20069;-85
2023/06/07 14:05:40;;;;;;;42.38;33.80;;;;;;;;;;4967493;28;20133;-81
2023/06/07 14:08:06;;;;;;;52.03;38.78;;;;;;;;;;4967272;28;20122;-82
2023/06/07 14:10:33;;;;;;;41.17;34.60;;;;;;;;;;4970056;28;20142;-82
2023/06/07 14:12:59;;;;;;;48.20;37.97;;;;;;;;;;4968997;28;20038;-83
2023/06/07 14:15:26;;;;;;;52.75;40.58;;;;;;;;;;4969303;28;20098;-82
2023/06/07 14:17:52;;;;;;;49.80;38.90;;;;;;;;;;4959772;28;20097;-84
2023/06/07 14:20:18;;;;;;;47.80;37.95;;;;;;;;;;4967357;28;20031;-81
2023/06/07 14:22:44;;;;;;;47.75;37.63;;;;;;;;;;4970362;28;20045;-80
2023/06/07 14:25:11;;;;;;;45.70;38.08;;;;;;;;;;4965895;28;20345;-83
2023/06/07 14:27:37;;;;;;;52.25;35.40;;;;;;;;;;4969523;28;20035;-83
2023/06/07 14:30:03;;;;;;;46.45;36.25;;;;;;;;;;4966282;28;20043;-84
2023/06/07 14:32:32;;;;;;;45.17;36.05;;;;;;;;;;4968676;28;20050;-83